sensor_id;sensor_type;location;lat;lon;timestamp;temperature;humidity
29501;DHT22;16450;50.288;10.966;2023-05-07T00:03:01;15.30;77.10
29501;DHT22;16450;50.288;10.966;2023-05-07T00:06:03;15.20;77.00
29501;DHT22;16450;50.288;10.966;2023-05-07T00:09:05;15.20;77.30
29501;DHT22;16450;50.288;10.966;2023-05-07T00:12:07;15.20;77.40
29501;DHT22;16450;50.288;10.966;2023-05-07T00:15:10;15.20;77.80
29501;DHT22;16450;50.288;10.966;2023-05-07T00:18:12;15.10;77.70
29501;DHT22;16450;50.288;10.966;2023-05-07T00:21:14;15.10;77.90
29501;DHT22;16450;50.288;10.966;2023-05-07T00:24:16;15.00;78.00
29501;DHT22;16450;50.288;10.966;2023-05-07T00:27:17;15.00;78.30
29501;DHT22;16450;50.288;10.966;2023-05-07T00:30:19;15.10;78.50
29501;DHT22;16450;50.288;10.966;2023-05-07T00:33:21;15.00;78.60
29501;DHT22;16450;50.288;10.966;2023-05-07T00:36:23;15.00;78.80
29501;DHT22;16450;50.288;10.966;2023-05-07T00:39:25;14.90;79.40
29501;DHT22;16450;50.288;10.966;2023-05-07T00:42:27;14.90;78.80
29501;DHT22;16450;50.288;10.966;2023-05-07T00:45:29;14.90;79.00
29501;DHT22;16450;50.288;10.966;2023-05-07T00:48:31;14.90;79.20
29501;DHT22;16450;50.288;10.966;2023-05-07T00:51:33;14.80;79.40
29501;DHT22;16450;50.288;10.966;2023-05-07T00:54:36;14.80;79.50
29501;DHT22;16450;50.288;10.966;2023-05-07T00:57:40;14.80;79.60
29501;DHT22;16450;50.288;10.966;2023-05-07T01:00:42;14.80;79.90
29501;DHT22;16450;50.288;10.966;2023-05-07T01:03:44;14.80;79.90
29501;DHT22;16450;50.288;10.966;2023-05-07T01:06:46;14.80;80.10
29501;DHT22;16450;50.288;10.966;2023-05-07T01:09:49;14.70;80.30
29501;DHT22;16450;50.288;10.966;2023-05-07T01:12:52;14.70;80.30
29501;DHT22;16450;50.288;10.966;2023-05-07T01:15:55;14.70;80.20
29501;DHT22;16450;50.288;10.966;2023-05-07T01:18:57;14.70;80.30
29501;DHT22;16450;50.288;10.966;2023-05-07T01:22:03;14.60;80.20
29501;DHT22;16450;50.288;10.966;2023-05-07T01:25:08;14.70;80.80
29501;DHT22;16450;50.288;10.966;2023-05-07T01:28:10;14.60;80.40
29501;DHT22;16450;50.288;10.966;2023-05-07T01:31:12;14.60;80.80
29501;DHT22;16450;50.288;10.966;2023-05-07T01:34:16;14.60;80.70
29501;DHT22;16450;50.288;10.966;2023-05-07T01:37:19;14.60;81.00
29501;DHT22;16450;50.288;10.966;2023-05-07T01:40:24;14.60;81.00
29501;DHT22;16450;50.288;10.966;2023-05-07T01:43:26;14.50;80.90
29501;DHT22;16450;50.288;10.966;2023-05-07T01:46:28;14.50;81.10
29501;DHT22;16450;50.288;10.966;2023-05-07T01:49:30;14.40;81.00
29501;DHT22;16450;50.288;10.966;2023-05-07T01:52:32;14.40;81.00
29501;DHT22;16450;50.288;10.966;2023-05-07T01:55:34;14.30;80.90
29501;DHT22;16450;50.288;10.966;2023-05-07T01:58:38;14.30;80.90
29501;DHT22;16450;50.288;10.966;2023-05-07T02:01:40;14.20;80.80
29501;DHT22;16450;50.288;10.966;2023-05-07T02:04:42;14.20;80.90
29501;DHT22;16450;50.288;10.966;2023-05-07T02:07:43;14.10;80.90
29501;DHT22;16450;50.288;10.966;2023-05-07T02:10:45;14.10;81.10
29501;DHT22;16450;50.288;10.966;2023-05-07T02:13:47;14.00;81.90
29501;DHT22;16450;50.288;10.966;2023-05-07T02:16:49;14.00;81.20
29501;DHT22;16450;50.288;10.966;2023-05-07T02:19:51;13.90;81.40
29501;DHT22;16450;50.288;10.966;2023-05-07T02:22:52;13.90;81.50
29501;DHT22;16450;50.288;10.966;2023-05-07T02:25:55;13.80;81.50
29501;DHT22;16450;50.288;10.966;2023-05-07T02:28:57;13.70;81.80
29501;DHT22;16450;50.288;10.966;2023-05-07T02:31:59;13.70;81.90
29501;DHT22;16450;50.288;10.966;2023-05-07T02:35:00;13.70;82.10
29501;DHT22;16450;50.288;10.966;2023-05-07T02:38:03;13.60;82.30
29501;DHT22;16450;50.288;10.966;2023-05-07T02:41:05;13.60;82.50
29501;DHT22;16450;50.288;10.966;2023-05-07T02:44:06;13.60;82.80
29501;DHT22;16450;50.288;10.966;2023-05-07T02:47:08;13.60;82.90
29501;DHT22;16450;50.288;10.966;2023-05-07T02:50:11;13.60;83.10
29501;DHT22;16450;50.288;10.966;2023-05-07T02:53:13;13.60;83.30
29501;DHT22;16450;50.288;10.966;2023-05-07T02:56:15;13.60;83.20
29501;DHT22;16450;50.288;10.966;2023-05-07T02:59:17;13.60;83.40
29501;DHT22;16450;50.288;10.966;2023-05-07T03:02:19;13.60;83.40
29501;DHT22;16450;50.288;10.966;2023-05-07T03:05:21;13.60;83.40
29501;DHT22;16450;50.288;10.966;2023-05-07T03:08:24;13.60;83.40
29501;DHT22;16450;50.288;10.966;2023-05-07T03:11:26;13.60;83.40
29501;DHT22;16450;50.288;10.966;2023-05-07T03:14:27;13.60;83.30
29501;DHT22;16450;50.288;10.966;2023-05-07T03:17:29;13.50;83.00
29501;DHT22;16450;50.288;10.966;2023-05-07T03:20:31;13.50;83.00
29501;DHT22;16450;50.288;10.966;2023-05-07T03:23:33;13.40;82.90
29501;DHT22;16450;50.288;10.966;2023-05-07T03:26:35;13.40;82.90
29501;DHT22;16450;50.288;10.966;2023-05-07T03:29:37;13.30;82.90
29501;DHT22;16450;50.288;10.966;2023-05-07T03:32:39;13.30;83.30
29501;DHT22;16450;50.288;10.966;2023-05-07T03:35:41;13.20;83.10
29501;DHT22;16450;50.288;10.966;2023-05-07T03:38:43;13.20;83.40
29501;DHT22;16450;50.288;10.966;2023-05-07T03:41:45;13.10;83.30
29501;DHT22;16450;50.288;10.966;2023-05-07T03:44:47;13.10;83.60
29501;DHT22;16450;50.288;10.966;2023-05-07T03:47:48;13.10;83.60
29501;DHT22;16450;50.288;10.966;2023-05-07T03:50:50;13.00;83.50
29501;DHT22;16450;50.288;10.966;2023-05-07T03:53:52;13.00;83.80
29501;DHT22;16450;50.288;10.966;2023-05-07T03:56:54;13.00;84.00
29501;DHT22;16450;50.288;10.966;2023-05-07T03:59:56;13.00;84.30
29501;DHT22;16450;50.288;10.966;2023-05-07T04:02:58;13.00;84.50
29501;DHT22;16450;50.288;10.966;2023-05-07T04:05:59;13.00;84.80
29501;DHT22;16450;50.288;10.966;2023-05-07T04:09:01;13.00;84.90
29501;DHT22;16450;50.288;10.966;2023-05-07T04:12:03;13.00;84.90
29501;DHT22;16450;50.288;10.966;2023-05-07T04:15:06;13.00;84.90
29501;DHT22;16450;50.288;10.966;2023-05-07T04:18:08;13.00;85.10
29501;DHT22;16450;50.288;10.966;2023-05-07T04:21:17;13.10;85.20
29501;DHT22;16450;50.288;10.966;2023-05-07T04:24:19;13.00;85.30
29501;DHT22;16450;50.288;10.966;2023-05-07T04:27:21;13.10;85.20
29501;DHT22;16450;50.288;10.966;2023-05-07T04:30:23;13.10;85.20
29501;DHT22;16450;50.288;10.966;2023-05-07T04:33:25;13.10;85.20
29501;DHT22;16450;50.288;10.966;2023-05-07T04:36:27;13.10;85.20
29501;DHT22;16450;50.288;10.966;2023-05-07T04:39:29;13.10;85.30
29501;DHT22;16450;50.288;10.966;2023-05-07T04:42:31;13.00;85.20
29501;DHT22;16450;50.288;10.966;2023-05-07T04:45:33;13.10;85.30
29501;DHT22;16450;50.288;10.966;2023-05-07T04:48:35;13.00;85.30
29501;DHT22;16450;50.288;10.966;2023-05-07T04:51:36;13.00;85.40
29501;DHT22;16450;50.288;10.966;2023-05-07T04:54:39;13.00;85.50
29501;DHT22;16450;50.288;10.966;2023-05-07T04:57:41;13.00;85.80
29501;DHT22;16450;50.288;10.966;2023-05-07T05:00:43;13.00;86.00
29501;DHT22;16450;50.288;10.966;2023-05-07T05:03:45;13.00;86.30
29501;DHT22;16450;50.288;10.966;2023-05-07T05:06:47;13.00;86.40
29501;DHT22;16450;50.288;10.966;2023-05-07T05:09:48;13.10;86.80
29501;DHT22;16450;50.288;10.966;2023-05-07T05:12:51;13.20;87.20
29501;DHT22;16450;50.288;10.966;2023-05-07T05:15:53;13.20;87.40
29501;DHT22;16450;50.288;10.966;2023-05-07T05:18:55;13.30;87.80
29501;DHT22;16450;50.288;10.966;2023-05-07T05:21:56;13.40;87.90
29501;DHT22;16450;50.288;10.966;2023-05-07T05:24:58;13.50;88.00
29501;DHT22;16450;50.288;10.966;2023-05-07T05:28:00;13.60;88.80
29501;DHT22;16450;50.288;10.966;2023-05-07T05:31:02;13.70;88.20
29501;DHT22;16450;50.288;10.966;2023-05-07T05:34:04;13.80;88.10
29501;DHT22;16450;50.288;10.966;2023-05-07T05:37:06;13.90;87.90
29501;DHT22;16450;50.288;10.966;2023-05-07T05:40:08;13.90;87.70
29501;DHT22;16450;50.288;10.966;2023-05-07T05:43:11;14.00;87.80
29501;DHT22;16450;50.288;10.966;2023-05-07T05:46:13;14.10;88.20
29501;DHT22;16450;50.288;10.966;2023-05-07T05:49:15;14.20;88.10
29501;DHT22;16450;50.288;10.966;2023-05-07T05:52:16;14.30;88.20
29501;DHT22;16450;50.288;10.966;2023-05-07T05:55:19;14.40;88.40
29501;DHT22;16450;50.288;10.966;2023-05-07T05:58:21;14.50;88.60
29501;DHT22;16450;50.288;10.966;2023-05-07T06:01:23;14.70;89.00
29501;DHT22;16450;50.288;10.966;2023-05-07T06:04:25;14.80;88.60
29501;DHT22;16450;50.288;10.966;2023-05-07T06:07:27;14.90;88.30
29501;DHT22;16450;50.288;10.966;2023-05-07T06:10:29;15.00;87.70
29501;DHT22;16450;50.288;10.966;2023-05-07T06:13:31;15.10;87.30
29501;DHT22;16450;50.288;10.966;2023-05-07T06:16:34;15.10;86.50
29501;DHT22;16450;50.288;10.966;2023-05-07T06:19:36;15.10;86.30
29501;DHT22;16450;50.288;10.966;2023-05-07T06:22:38;15.10;86.30
29501;DHT22;16450;50.288;10.966;2023-05-07T06:25:39;15.10;86.10
29501;DHT22;16450;50.288;10.966;2023-05-07T06:28:41;15.10;85.70
29501;DHT22;16450;50.288;10.966;2023-05-07T06:31:43;15.10;85.70
29501;DHT22;16450;50.288;10.966;2023-05-07T06:34:45;15.10;85.70
29501;DHT22;16450;50.288;10.966;2023-05-07T06:37:47;15.10;85.70
29501;DHT22;16450;50.288;10.966;2023-05-07T06:40:49;15.00;85.80
29501;DHT22;16450;50.288;10.966;2023-05-07T06:43:51;15.00;85.70
29501;DHT22;16450;50.288;10.966;2023-05-07T06:46:53;15.10;85.80
29501;DHT22;16450;50.288;10.966;2023-05-07T06:49:55;15.00;85.50
29501;DHT22;16450;50.288;10.966;2023-05-07T06:52:57;15.00;85.70
29501;DHT22;16450;50.288;10.966;2023-05-07T06:55:59;15.00;85.60
29501;DHT22;16450;50.288;10.966;2023-05-07T06:59:02;15.00;85.70
29501;DHT22;16450;50.288;10.966;2023-05-07T07:02:04;15.00;86.20
29501;DHT22;16450;50.288;10.966;2023-05-07T07:05:06;15.00;86.30
29501;DHT22;16450;50.288;10.966;2023-05-07T07:08:09;15.10;86.10
29501;DHT22;16450;50.288;10.966;2023-05-07T07:11:11;15.10;86.20
29501;DHT22;16450;50.288;10.966;2023-05-07T07:14:13;15.20;86.20
29501;DHT22;16450;50.288;10.966;2023-05-07T07:17:14;15.30;86.60
29501;DHT22;16450;50.288;10.966;2023-05-07T07:20:16;15.40;87.10
29501;DHT22;16450;50.288;10.966;2023-05-07T07:23:18;15.50;87.00
29501;DHT22;16450;50.288;10.966;2023-05-07T07:26:20;15.60;87.10
29501;DHT22;16450;50.288;10.966;2023-05-07T07:29:22;15.70;87.20
29501;DHT22;16450;50.288;10.966;2023-05-07T07:32:24;15.80;86.70
29501;DHT22;16450;50.288;10.966;2023-05-07T07:35:25;15.90;86.90
29501;DHT22;16450;50.288;10.966;2023-05-07T07:38:27;16.00;86.80
29501;DHT22;16450;50.288;10.966;2023-05-07T07:41:29;16.10;86.00
29501;DHT22;16450;50.288;10.966;2023-05-07T07:44:31;16.20;85.60
29501;DHT22;16450;50.288;10.966;2023-05-07T07:47:34;16.30;86.10
29501;DHT22;16450;50.288;10.966;2023-05-07T07:50:36;16.40;85.80
29501;DHT22;16450;50.288;10.966;2023-05-07T07:53:46;16.50;86.30
29501;DHT22;16450;50.288;10.966;2023-05-07T07:56:48;16.70;86.60
29501;DHT22;16450;50.288;10.966;2023-05-07T07:59:50;16.90;87.80
29501;DHT22;16450;50.288;10.966;2023-05-07T08:02:52;17.10;87.10
29501;DHT22;16450;50.288;10.966;2023-05-07T08:05:54;17.40;86.90
29501;DHT22;16450;50.288;10.966;2023-05-07T08:08:56;17.60;86.80
29501;DHT22;16450;50.288;10.966;2023-05-07T08:11:57;17.80;86.20
29501;DHT22;16450;50.288;10.966;2023-05-07T08:14:59;18.10;86.50
29501;DHT22;16450;50.288;10.966;2023-05-07T08:18:02;18.30;85.90
29501;DHT22;16450;50.288;10.966;2023-05-07T08:21:04;18.60;85.80
29501;DHT22;16450;50.288;10.966;2023-05-07T08:24:06;18.80;85.70
29501;DHT22;16450;50.288;10.966;2023-05-07T08:27:08;19.10;85.30
29501;DHT22;16450;50.288;10.966;2023-05-07T08:30:10;19.20;84.70
29501;DHT22;16450;50.288;10.966;2023-05-07T08:33:12;19.50;84.40
29501;DHT22;16450;50.288;10.966;2023-05-07T08:36:14;19.70;83.60
29501;DHT22;16450;50.288;10.966;2023-05-07T08:39:16;19.80;82.20
29501;DHT22;16450;50.288;10.966;2023-05-07T08:42:23;19.90;82.10
29501;DHT22;16450;50.288;10.966;2023-05-07T08:45:26;20.10;81.50
29501;DHT22;16450;50.288;10.966;2023-05-07T08:48:29;20.30;81.50
29501;DHT22;16450;50.288;10.966;2023-05-07T08:51:32;20.40;81.30
29501;DHT22;16450;50.288;10.966;2023-05-07T08:54:37;20.60;80.10
29501;DHT22;16450;50.288;10.966;2023-05-07T08:57:39;20.60;78.70
29501;DHT22;16450;50.288;10.966;2023-05-07T09:00:42;20.70;79.30
29501;DHT22;16450;50.288;10.966;2023-05-07T09:03:45;20.80;78.90
29501;DHT22;16450;50.288;10.966;2023-05-07T09:06:48;20.90;78.00
29501;DHT22;16450;50.288;10.966;2023-05-07T09:09:52;20.90;79.30
29501;DHT22;16450;50.288;10.966;2023-05-07T09:12:56;21.10;78.90
29501;DHT22;16450;50.288;10.966;2023-05-07T09:16:11;21.30;78.60
29501;DHT22;16450;50.288;10.966;2023-05-07T09:19:13;21.40;77.30
29501;DHT22;16450;50.288;10.966;2023-05-07T09:22:15;21.50;77.40
29501;DHT22;16450;50.288;10.966;2023-05-07T09:25:28;21.70;76.50
29501;DHT22;16450;50.288;10.966;2023-05-07T09:28:30;21.80;75.30
29501;DHT22;16450;50.288;10.966;2023-05-07T09:31:37;22.00;77.30
29501;DHT22;16450;50.288;10.966;2023-05-07T09:34:41;22.20;75.00
29501;DHT22;16450;50.288;10.966;2023-05-07T09:37:43;22.40;75.00
29501;DHT22;16450;50.288;10.966;2023-05-07T09:40:45;22.60;75.30
29501;DHT22;16450;50.288;10.966;2023-05-07T09:43:53;22.70;74.40
29501;DHT22;16450;50.288;10.966;2023-05-07T09:46:56;22.90;70.80
29501;DHT22;16450;50.288;10.966;2023-05-07T09:49:59;22.90;71.20
29501;DHT22;16450;50.288;10.966;2023-05-07T09:53:04;22.90;70.30
29501;DHT22;16450;50.288;10.966;2023-05-07T09:56:06;22.90;69.30
29501;DHT22;16450;50.288;10.966;2023-05-07T09:59:08;22.80;69.20
29501;DHT22;16450;50.288;10.966;2023-05-07T10:02:13;22.70;68.70
29501;DHT22;16450;50.288;10.966;2023-05-07T10:05:17;22.60;68.60
29501;DHT22;16450;50.288;10.966;2023-05-07T10:08:19;22.40;68.70
29501;DHT22;16450;50.288;10.966;2023-05-07T10:11:22;22.40;67.60
29501;DHT22;16450;50.288;10.966;2023-05-07T10:14:24;22.30;67.20
29501;DHT22;16450;50.288;10.966;2023-05-07T10:17:26;22.10;67.80
29501;DHT22;16450;50.288;10.966;2023-05-07T10:20:28;22.00;67.20
29501;DHT22;16450;50.288;10.966;2023-05-07T10:23:31;21.90;67.00
29501;DHT22;16450;50.288;10.966;2023-05-07T10:26:35;21.80;66.90
29501;DHT22;16450;50.288;10.966;2023-05-07T10:29:43;21.70;66.60
29501;DHT22;16450;50.288;10.966;2023-05-07T10:32:49;21.70;66.00
29501;DHT22;16450;50.288;10.966;2023-05-07T10:35:56;21.70;66.60
29501;DHT22;16450;50.288;10.966;2023-05-07T10:38:59;21.70;66.80
29501;DHT22;16450;50.288;10.966;2023-05-07T10:42:11;21.90;68.20
29501;DHT22;16450;50.288;10.966;2023-05-07T10:45:14;21.80;68.10
29501;DHT22;16450;50.288;10.966;2023-05-07T10:48:17;22.00;68.40
29501;DHT22;16450;50.288;10.966;2023-05-07T10:51:30;22.10;69.30
29501;DHT22;16450;50.288;10.966;2023-05-07T10:54:35;22.20;69.30
29501;DHT22;16450;50.288;10.966;2023-05-07T10:57:38;22.40;67.80
29501;DHT22;16450;50.288;10.966;2023-05-07T11:00:43;22.50;68.20
29501;DHT22;16450;50.288;10.966;2023-05-07T11:04:16;22.60;68.80
29501;DHT22;16450;50.288;10.966;2023-05-07T11:07:29;22.90;69.70
29501;DHT22;16450;50.288;10.966;2023-05-07T11:13:52;23.30;65.30
29501;DHT22;16450;50.288;10.966;2023-05-07T11:17:05;23.50;68.50
29501;DHT22;16450;50.288;10.966;2023-05-07T11:20:08;23.70;66.00
29501;DHT22;16450;50.288;10.966;2023-05-07T11:26:47;23.90;64.50
29501;DHT22;16450;50.288;10.966;2023-05-07T11:29:50;23.90;62.60
29501;DHT22;16450;50.288;10.966;2023-05-07T11:32:52;23.80;63.60
29501;DHT22;16450;50.288;10.966;2023-05-07T11:35:54;23.80;63.30
29501;DHT22;16450;50.288;10.966;2023-05-07T11:38:56;23.70;62.70
29501;DHT22;16450;50.288;10.966;2023-05-07T11:41:59;23.70;62.40
29501;DHT22;16450;50.288;10.966;2023-05-07T11:45:01;23.70;63.10
29501;DHT22;16450;50.288;10.966;2023-05-07T11:48:03;23.70;64.70
29501;DHT22;16450;50.288;10.966;2023-05-07T11:51:07;23.80;62.80
29501;DHT22;16450;50.288;10.966;2023-05-07T11:54:15;23.80;61.20
29501;DHT22;16450;50.288;10.966;2023-05-07T11:57:17;23.80;61.70
29501;DHT22;16450;50.288;10.966;2023-05-07T12:00:19;23.80;59.80
29501;DHT22;16450;50.288;10.966;2023-05-07T12:03:21;23.70;60.30
29501;DHT22;16450;50.288;10.966;2023-05-07T12:06:23;23.70;61.50
29501;DHT22;16450;50.288;10.966;2023-05-07T12:09:25;23.70;60.40
29501;DHT22;16450;50.288;10.966;2023-05-07T12:12:27;23.60;60.30
29501;DHT22;16450;50.288;10.966;2023-05-07T12:15:29;23.60;60.70
29501;DHT22;16450;50.288;10.966;2023-05-07T12:18:31;23.70;59.50
29501;DHT22;16450;50.288;10.966;2023-05-07T12:21:33;23.70;59.90
29501;DHT22;16450;50.288;10.966;2023-05-07T12:24:57;23.60;60.90
29501;DHT22;16450;50.288;10.966;2023-05-07T12:28:00;23.70;61.20
29501;DHT22;16450;50.288;10.966;2023-05-07T12:31:02;23.70;60.60
29501;DHT22;16450;50.288;10.966;2023-05-07T12:34:05;23.80;61.20
29501;DHT22;16450;50.288;10.966;2023-05-07T12:37:07;23.90;59.50
29501;DHT22;16450;50.288;10.966;2023-05-07T12:40:10;24.00;59.60
29501;DHT22;16450;50.288;10.966;2023-05-07T12:43:31;24.00;59.40
29501;DHT22;16450;50.288;10.966;2023-05-07T12:46:38;24.10;59.20
29501;DHT22;16450;50.288;10.966;2023-05-07T12:49:41;24.20;60.20
29501;DHT22;16450;50.288;10.966;2023-05-07T12:52:44;24.20;58.70
29501;DHT22;16450;50.288;10.966;2023-05-07T12:55:52;24.30;58.20
29501;DHT22;16450;50.288;10.966;2023-05-07T12:58:57;24.40;57.80
29501;DHT22;16450;50.288;10.966;2023-05-07T13:01:59;24.40;56.20
29501;DHT22;16450;50.288;10.966;2023-05-07T13:05:01;24.40;55.60
29501;DHT22;16450;50.288;10.966;2023-05-07T13:08:04;24.20;55.30
29501;DHT22;16450;50.288;10.966;2023-05-07T13:11:07;24.10;54.60
29501;DHT22;16450;50.288;10.966;2023-05-07T13:14:09;24.00;55.80
29501;DHT22;16450;50.288;10.966;2023-05-07T13:17:11;23.90;54.90
29501;DHT22;16450;50.288;10.966;2023-05-07T13:20:13;23.80;54.80
29501;DHT22;16450;50.288;10.966;2023-05-07T13:23:15;23.70;54.90
29501;DHT22;16450;50.288;10.966;2023-05-07T13:26:17;23.60;55.00
29501;DHT22;16450;50.288;10.966;2023-05-07T13:29:25;23.60;56.60
29501;DHT22;16450;50.288;10.966;2023-05-07T13:32:31;23.70;56.60
29501;DHT22;16450;50.288;10.966;2023-05-07T13:35:33;23.90;57.20
29501;DHT22;16450;50.288;10.966;2023-05-07T13:38:35;24.10;56.80
29501;DHT22;16450;50.288;10.966;2023-05-07T13:41:37;24.20;56.30
29501;DHT22;16450;50.288;10.966;2023-05-07T13:44:39;24.30;56.00
29501;DHT22;16450;50.288;10.966;2023-05-07T13:47:41;24.30;56.10
29501;DHT22;16450;50.288;10.966;2023-05-07T13:50:43;24.30;55.40
29501;DHT22;16450;50.288;10.966;2023-05-07T13:53:45;24.20;55.30
29501;DHT22;16450;50.288;10.966;2023-05-07T13:56:47;24.10;54.90
29501;DHT22;16450;50.288;10.966;2023-05-07T13:59:49;23.90;54.90
29501;DHT22;16450;50.288;10.966;2023-05-07T14:02:51;23.80;55.50
29501;DHT22;16450;50.288;10.966;2023-05-07T14:05:53;23.70;56.70
29501;DHT22;16450;50.288;10.966;2023-05-07T14:08:55;23.70;56.70
29501;DHT22;16450;50.288;10.966;2023-05-07T14:11:59;23.80;56.60
29501;DHT22;16450;50.288;10.966;2023-05-07T14:15:01;23.80;56.80
29501;DHT22;16450;50.288;10.966;2023-05-07T14:18:03;23.80;56.70
29501;DHT22;16450;50.288;10.966;2023-05-07T14:21:05;23.90;56.40
29501;DHT22;16450;50.288;10.966;2023-05-07T14:24:11;23.90;56.20
29501;DHT22;16450;50.288;10.966;2023-05-07T14:27:13;24.00;55.70
29501;DHT22;16450;50.288;10.966;2023-05-07T14:30:15;23.90;55.20
29501;DHT22;16450;50.288;10.966;2023-05-07T14:33:18;23.90;55.80
29501;DHT22;16450;50.288;10.966;2023-05-07T14:36:20;23.90;55.10
29501;DHT22;16450;50.288;10.966;2023-05-07T14:39:22;23.90;55.30
29501;DHT22;16450;50.288;10.966;2023-05-07T14:42:24;23.90;55.00
29501;DHT22;16450;50.288;10.966;2023-05-07T14:45:27;23.90;54.90
29501;DHT22;16450;50.288;10.966;2023-05-07T14:48:28;23.90;54.40
29501;DHT22;16450;50.288;10.966;2023-05-07T14:51:30;23.80;54.60
29501;DHT22;16450;50.288;10.966;2023-05-07T14:54:34;23.70;54.80
29501;DHT22;16450;50.288;10.966;2023-05-07T14:57:39;23.70;54.90
29501;DHT22;16450;50.288;10.966;2023-05-07T15:00:42;23.70;55.00
29501;DHT22;16450;50.288;10.966;2023-05-07T15:03:43;23.70;55.50
29501;DHT22;16450;50.288;10.966;2023-05-07T15:06:45;23.70;54.90
29501;DHT22;16450;50.288;10.966;2023-05-07T15:09:48;23.70;55.00
29501;DHT22;16450;50.288;10.966;2023-05-07T15:12:50;23.60;55.00
29501;DHT22;16450;50.288;10.966;2023-05-07T15:15:51;23.50;54.90
29501;DHT22;16450;50.288;10.966;2023-05-07T15:18:54;23.50;54.80
29501;DHT22;16450;50.288;10.966;2023-05-07T15:22:00;23.40;54.70
29501;DHT22;16450;50.288;10.966;2023-05-07T15:25:05;23.30;54.50
29501;DHT22;16450;50.288;10.966;2023-05-07T15:28:07;23.20;54.60
29501;DHT22;16450;50.288;10.966;2023-05-07T15:31:09;23.10;54.70
29501;DHT22;16450;50.288;10.966;2023-05-07T15:34:11;23.00;55.00
29501;DHT22;16450;50.288;10.966;2023-05-07T15:37:12;22.90;55.00
29501;DHT22;16450;50.288;10.966;2023-05-07T15:40:14;22.90;55.70
29501;DHT22;16450;50.288;10.966;2023-05-07T15:43:16;22.80;55.10
29501;DHT22;16450;50.288;10.966;2023-05-07T15:46:19;22.70;55.00
29501;DHT22;16450;50.288;10.966;2023-05-07T15:49:22;22.70;54.80
29501;DHT22;16450;50.288;10.966;2023-05-07T15:52:24;22.70;54.70
29501;DHT22;16450;50.288;10.966;2023-05-07T15:55:26;22.60;54.90
29501;DHT22;16450;50.288;10.966;2023-05-07T15:58:28;22.60;55.50
29501;DHT22;16450;50.288;10.966;2023-05-07T16:01:29;22.50;55.10
29501;DHT22;16450;50.288;10.966;2023-05-07T16:04:31;22.40;54.90
29501;DHT22;16450;50.288;10.966;2023-05-07T16:07:33;22.30;55.20
29501;DHT22;16450;50.288;10.966;2023-05-07T16:10:35;22.20;55.10
29501;DHT22;16450;50.288;10.966;2023-05-07T16:13:37;22.10;55.00
29501;DHT22;16450;50.288;10.966;2023-05-07T16:16:39;22.00;55.30
29501;DHT22;16450;50.288;10.966;2023-05-07T16:19:41;21.80;55.70
29501;DHT22;16450;50.288;10.966;2023-05-07T16:22:43;21.70;55.40
29501;DHT22;16450;50.288;10.966;2023-05-07T16:25:45;21.60;55.50
29501;DHT22;16450;50.288;10.966;2023-05-07T16:28:47;21.50;55.60
29501;DHT22;16450;50.288;10.966;2023-05-07T16:31:49;21.40;55.60
29501;DHT22;16450;50.288;10.966;2023-05-07T16:34:51;21.30;56.20
29501;DHT22;16450;50.288;10.966;2023-05-07T16:37:53;21.30;56.10
29501;DHT22;16450;50.288;10.966;2023-05-07T16:40:55;21.20;56.10
29501;DHT22;16450;50.288;10.966;2023-05-07T16:43:57;21.20;56.40
29501;DHT22;16450;50.288;10.966;2023-05-07T16:46:59;21.10;56.00
29501;DHT22;16450;50.288;10.966;2023-05-07T16:50:01;21.00;56.10
29501;DHT22;16450;50.288;10.966;2023-05-07T16:53:06;20.90;56.00
29501;DHT22;16450;50.288;10.966;2023-05-07T16:56:08;20.80;55.80
29501;DHT22;16450;50.288;10.966;2023-05-07T16:59:09;20.70;55.90
29501;DHT22;16450;50.288;10.966;2023-05-07T17:02:11;20.50;56.00
29501;DHT22;16450;50.288;10.966;2023-05-07T17:05:13;20.40;56.20
29501;DHT22;16450;50.288;10.966;2023-05-07T17:08:15;20.30;56.30
29501;DHT22;16450;50.288;10.966;2023-05-07T17:11:17;20.10;57.00
29501;DHT22;16450;50.288;10.966;2023-05-07T17:14:19;20.00;56.40
29501;DHT22;16450;50.288;10.966;2023-05-07T17:17:21;19.90;56.70
29501;DHT22;16450;50.288;10.966;2023-05-07T17:20:23;19.80;56.90
29501;DHT22;16450;50.288;10.966;2023-05-07T17:23:25;19.70;56.90
29501;DHT22;16450;50.288;10.966;2023-05-07T17:26:27;19.60;57.10
29501;DHT22;16450;50.288;10.966;2023-05-07T17:29:29;19.50;57.40
29501;DHT22;16450;50.288;10.966;2023-05-07T17:32:31;19.40;57.20
29501;DHT22;16450;50.288;10.966;2023-05-07T17:35:35;19.40;57.20
29501;DHT22;16450;50.288;10.966;2023-05-07T17:38:37;19.20;57.30
29501;DHT22;16450;50.288;10.966;2023-05-07T17:41:39;19.20;57.70
29501;DHT22;16450;50.288;10.966;2023-05-07T17:44:41;19.10;57.40
29501;DHT22;16450;50.288;10.966;2023-05-07T17:47:43;19.00;57.30
29501;DHT22;16450;50.288;10.966;2023-05-07T17:50:44;18.90;57.40
29501;DHT22;16450;50.288;10.966;2023-05-07T17:53:46;18.80;57.30
29501;DHT22;16450;50.288;10.966;2023-05-07T17:56:48;18.70;57.40
29501;DHT22;16450;50.288;10.966;2023-05-07T17:59:50;18.60;57.50
29501;DHT22;16450;50.288;10.966;2023-05-07T18:02:52;18.60;57.90
29501;DHT22;16450;50.288;10.966;2023-05-07T18:05:54;18.40;57.80
29501;DHT22;16450;50.288;10.966;2023-05-07T18:08:55;18.40;57.90
29501;DHT22;16450;50.288;10.966;2023-05-07T18:11:57;18.20;58.00
29501;DHT22;16450;50.288;10.966;2023-05-07T18:15:00;18.10;57.80
29501;DHT22;16450;50.288;10.966;2023-05-07T18:18:02;18.10;57.70
29501;DHT22;16450;50.288;10.966;2023-05-07T18:21:04;18.00;57.90
29501;DHT22;16450;50.288;10.966;2023-05-07T18:24:06;17.90;58.10
29501;DHT22;16450;50.288;10.966;2023-05-07T18:27:08;17.80;58.70
29501;DHT22;16450;50.288;10.966;2023-05-07T18:30:10;17.70;58.80
29501;DHT22;16450;50.288;10.966;2023-05-07T18:33:12;17.60;58.60
29501;DHT22;16450;50.288;10.966;2023-05-07T18:36:14;17.60;58.50
29501;DHT22;16450;50.288;10.966;2023-05-07T18:39:16;17.50;58.90
29501;DHT22;16450;50.288;10.966;2023-05-07T18:42:18;17.40;59.20
29501;DHT22;16450;50.288;10.966;2023-05-07T18:45:20;17.30;59.20
29501;DHT22;16450;50.288;10.966;2023-05-07T18:48:22;17.30;59.40
29501;DHT22;16450;50.288;10.966;2023-05-07T18:51:24;17.20;59.50
29501;DHT22;16450;50.288;10.966;2023-05-07T18:54:28;17.20;59.80
29501;DHT22;16450;50.288;10.966;2023-05-07T18:57:29;17.10;60.00
29501;DHT22;16450;50.288;10.966;2023-05-07T19:00:31;17.10;60.00
29501;DHT22;16450;50.288;10.966;2023-05-07T19:03:33;17.00;60.20